sensor_id;sensor_type;location;lat;lon;timestamp;P1;durP1;ratioP1;P2;durP2;ratioP2
35803;SDS011;21924;51.934;7.414;2022-12-29T00:01:25;8.02;;;5.78;;
35803;SDS011;21924;51.934;7.414;2022-12-29T00:04:11;8.75;;;6.15;;
35803;SDS011;21924;51.934;7.414;2022-12-29T00:06:56;9.05;;;5.85;;
35803;SDS011;21924;51.934;7.414;2022-12-29T00:09:41;7.75;;;5.68;;
35803;SDS011;21924;51.934;7.414;2022-12-29T00:12:25;8.77;;;5.25;;
35803;SDS011;21924;51.934;7.414;2022-12-29T00:15:29;8.98;;;4.78;;
35803;SDS011;21924;51.934;7.414;2022-12-29T00:18:23;5.18;;;3.90;;
35803;SDS011;21924;51.934;7.414;2022-12-29T00:21:16;5.43;;;4.50;;
35803;SDS011;21924;51.934;7.414;2022-12-29T00:24:21;8.63;;;4.07;;
35803;SDS011;21924;51.934;7.414;2022-12-29T00:30:09;4.97;;;4.10;;
35803;SDS011;21924;51.934;7.414;2022-12-29T00:33:18;7.10;;;3.70;;
35803;SDS011;21924;51.934;7.414;2022-12-29T00:36:23;5.65;;;3.40;;
35803;SDS011;21924;51.934;7.414;2022-12-29T00:39:18;5.07;;;3.50;;
35803;SDS011;21924;51.934;7.414;2022-12-29T00:42:21;6.57;;;3.78;;
35803;SDS011;21924;51.934;7.414;2022-12-29T00:45:25;4.38;;;3.10;;
35803;SDS011;21924;51.934;7.414;2022-12-29T00:48:09;3.50;;;2.97;;
35803;SDS011;21924;51.934;7.414;2022-12-29T00:50:55;5.78;;;3.45;;
35803;SDS011;21924;51.934;7.414;2022-12-29T00:53:40;2.80;;;2.53;;
35803;SDS011;21924;51.934;7.414;2022-12-29T00:56:24;3.50;;;2.72;;
35803;SDS011;21924;51.934;7.414;2022-12-29T00:59:09;3.13;;;2.83;;
35803;SDS011;21924;51.934;7.414;2022-12-29T01:01:54;3.60;;;2.87;;
35803;SDS011;21924;51.934;7.414;2022-12-29T01:04:39;8.05;;;2.83;;
35803;SDS011;21924;51.934;7.414;2022-12-29T01:07:23;3.15;;;2.85;;
35803;SDS011;21924;51.934;7.414;2022-12-29T01:10:07;2.85;;;2.65;;
35803;SDS011;21924;51.934;7.414;2022-12-29T01:12:55;3.30;;;2.63;;
35803;SDS011;21924;51.934;7.414;2022-12-29T01:15:39;4.55;;;3.13;;
35803;SDS011;21924;51.934;7.414;2022-12-29T01:18:24;4.30;;;3.00;;
35803;SDS011;21924;51.934;7.414;2022-12-29T01:21:08;4.38;;;3.90;;
35803;SDS011;21924;51.934;7.414;2022-12-29T01:23:52;4.80;;;3.83;;
35803;SDS011;21924;51.934;7.414;2022-12-29T01:26:37;5.60;;;4.50;;
35803;SDS011;21924;51.934;7.414;2022-12-29T01:29:21;5.30;;;4.30;;
35803;SDS011;21924;51.934;7.414;2022-12-29T01:32:06;5.38;;;4.45;;
35803;SDS011;21924;51.934;7.414;2022-12-29T01:34:50;4.40;;;3.83;;
35803;SDS011;21924;51.934;7.414;2022-12-29T01:37:34;4.03;;;3.60;;
35803;SDS011;21924;51.934;7.414;2022-12-29T01:40:19;4.78;;;3.80;;
35803;SDS011;21924;51.934;7.414;2022-12-29T01:43:04;4.72;;;3.88;;
35803;SDS011;21924;51.934;7.414;2022-12-29T01:45:51;5.63;;;3.90;;
35803;SDS011;21924;51.934;7.414;2022-12-29T01:48:37;9.38;;;3.80;;
35803;SDS011;21924;51.934;7.414;2022-12-29T01:51:23;6.00;;;3.10;;
35803;SDS011;21924;51.934;7.414;2022-12-29T01:54:11;5.72;;;3.83;;
35803;SDS011;21924;51.934;7.414;2022-12-29T01:57:01;3.97;;;3.30;;
35803;SDS011;21924;51.934;7.414;2022-12-29T02:00:30;3.97;;;3.55;;
35803;SDS011;21924;51.934;7.414;2022-12-29T02:02:57;4.15;;;3.70;;
35803;SDS011;21924;51.934;7.414;2022-12-29T02:05:43;4.32;;;3.58;;
35803;SDS011;21924;51.934;7.414;2022-12-29T02:08:33;3.92;;;3.15;;
35803;SDS011;21924;51.934;7.414;2022-12-29T02:11:19;4.38;;;3.03;;
35803;SDS011;21924;51.934;7.414;2022-12-29T02:14:08;4.30;;;3.38;;
35803;SDS011;21924;51.934;7.414;2022-12-29T02:29:19;4.20;;;2.72;;
35803;SDS011;21924;51.934;7.414;2022-12-29T02:36:07;3.35;;;2.20;;
35803;SDS011;21924;51.934;7.414;2022-12-29T02:41:34;2.88;;;2.58;;
35803;SDS011;21924;51.934;7.414;2022-12-29T02:47:51;3.05;;;2.67;;
35803;SDS011;21924;51.934;7.414;2022-12-29T02:54:16;3.58;;;2.60;;
35803;SDS011;21924;51.934;7.414;2022-12-29T02:57:32;2.97;;;2.35;;
35803;SDS011;21924;51.934;7.414;2022-12-29T03:00:17;4.88;;;2.55;;
35803;SDS011;21924;51.934;7.414;2022-12-29T03:06:00;2.40;;;2.20;;
35803;SDS011;21924;51.934;7.414;2022-12-29T03:12:47;1.90;;;1.80;;
35803;SDS011;21924;51.934;7.414;2022-12-29T03:22:25;2.60;;;2.25;;
35803;SDS011;21924;51.934;7.414;2022-12-29T03:25:19;3.63;;;2.20;;
35803;SDS011;21924;51.934;7.414;2022-12-29T03:28:06;3.33;;;2.15;;
35803;SDS011;21924;51.934;7.414;2022-12-29T03:30:53;10.23;;;2.20;;
35803;SDS011;21924;51.934;7.414;2022-12-29T03:33:41;2.42;;;2.13;;
35803;SDS011;21924;51.934;7.414;2022-12-29T03:36:27;2.43;;;2.23;;
35803;SDS011;21924;51.934;7.414;2022-12-29T03:39:20;2.20;;;2.08;;
35803;SDS011;21924;51.934;7.414;2022-12-29T03:42:09;8.05;;;2.67;;
35803;SDS011;21924;51.934;7.414;2022-12-29T03:44:58;2.75;;;2.40;;
35803;SDS011;21924;51.934;7.414;2022-12-29T03:47:43;4.60;;;2.20;;
35803;SDS011;21924;51.934;7.414;2022-12-29T03:50:27;2.40;;;2.20;;
35803;SDS011;21924;51.934;7.414;2022-12-29T03:53:11;2.58;;;2.20;;
35803;SDS011;21924;51.934;7.414;2022-12-29T03:55:56;3.83;;;2.17;;
35803;SDS011;21924;51.934;7.414;2022-12-29T03:58:40;2.53;;;2.33;;
35803;SDS011;21924;51.934;7.414;2022-12-29T04:01:24;4.82;;;2.10;;
35803;SDS011;21924;51.934;7.414;2022-12-29T04:04:09;2.25;;;2.08;;
35803;SDS011;21924;51.934;7.414;2022-12-29T04:06:53;2.58;;;2.15;;
35803;SDS011;21924;51.934;7.414;2022-12-29T04:09:38;2.90;;;2.60;;
35803;SDS011;21924;51.934;7.414;2022-12-29T04:12:22;3.25;;;2.20;;
35803;SDS011;21924;51.934;7.414;2022-12-29T04:15:06;3.20;;;2.30;;
35803;SDS011;21924;51.934;7.414;2022-12-29T04:17:51;2.50;;;2.30;;
35803;SDS011;21924;51.934;7.414;2022-12-29T04:20:35;7.45;;;2.30;;
35803;SDS011;21924;51.934;7.414;2022-12-29T04:23:39;2.22;;;2.03;;
35803;SDS011;21924;51.934;7.414;2022-12-29T04:26:23;2.25;;;2.15;;
35803;SDS011;21924;51.934;7.414;2022-12-29T04:29:07;2.25;;;2.00;;
35803;SDS011;21924;51.934;7.414;2022-12-29T04:31:52;3.85;;;2.25;;
35803;SDS011;21924;51.934;7.414;2022-12-29T04:34:36;2.42;;;1.95;;
35803;SDS011;21924;51.934;7.414;2022-12-29T04:37:21;2.88;;;2.60;;
35803;SDS011;21924;51.934;7.414;2022-12-29T04:40:05;3.20;;;2.40;;
35803;SDS011;21924;51.934;7.414;2022-12-29T04:42:50;2.47;;;1.83;;
35803;SDS011;21924;51.934;7.414;2022-12-29T04:45:35;2.38;;;2.17;;
35803;SDS011;21924;51.934;7.414;2022-12-29T04:48:19;1.90;;;1.80;;
35803;SDS011;21924;51.934;7.414;2022-12-29T04:51:03;7.07;;;2.22;;
35803;SDS011;21924;51.934;7.414;2022-12-29T04:53:47;1.83;;;1.73;;
35803;SDS011;21924;51.934;7.414;2022-12-29T04:56:32;1.58;;;1.48;;
35803;SDS011;21924;51.934;7.414;2022-12-29T04:59:16;1.40;;;1.40;;
35803;SDS011;21924;51.934;7.414;2022-12-29T05:02:00;1.70;;;1.60;;
35803;SDS011;21924;51.934;7.414;2022-12-29T05:04:44;1.40;;;1.40;;
35803;SDS011;21924;51.934;7.414;2022-12-29T05:07:29;1.50;;;1.50;;
35803;SDS011;21924;51.934;7.414;2022-12-29T05:10:14;1.70;;;1.60;;
35803;SDS011;21924;51.934;7.414;2022-12-29T05:12:58;7.53;;;1.50;;
35803;SDS011;21924;51.934;7.414;2022-12-29T05:15:51;7.63;;;1.70;;
35803;SDS011;21924;51.934;7.414;2022-12-29T05:18:36;1.83;;;1.50;;
35803;SDS011;21924;51.934;7.414;2022-12-29T05:21:20;3.50;;;1.73;;
35803;SDS011;21924;51.934;7.414;2022-12-29T05:24:05;2.83;;;1.50;;
35803;SDS011;21924;51.934;7.414;2022-12-29T05:26:49;2.60;;;1.60;;
35803;SDS011;21924;51.934;7.414;2022-12-29T05:29:33;1.65;;;1.63;;
35803;SDS011;21924;51.934;7.414;2022-12-29T05:32:18;1.80;;;1.70;;
35803;SDS011;21924;51.934;7.414;2022-12-29T05:35:03;2.80;;;2.20;;
35803;SDS011;21924;51.934;7.414;2022-12-29T05:37:48;1.75;;;1.60;;
35803;SDS011;21924;51.934;7.414;2022-12-29T05:40:32;2.08;;;1.80;;
35803;SDS011;21924;51.934;7.414;2022-12-29T05:43:16;2.15;;;1.60;;
35803;SDS011;21924;51.934;7.414;2022-12-29T05:46:00;2.70;;;1.70;;
35803;SDS011;21924;51.934;7.414;2022-12-29T05:48:46;2.17;;;2.05;;
35803;SDS011;21924;51.934;7.414;2022-12-29T05:51:30;4.13;;;1.85;;
35803;SDS011;21924;51.934;7.414;2022-12-29T05:54:15;1.90;;;1.80;;
35803;SDS011;21924;51.934;7.414;2022-12-29T05:57:00;4.70;;;1.95;;
35803;SDS011;21924;51.934;7.414;2022-12-29T05:59:44;3.97;;;1.90;;
35803;SDS011;21924;51.934;7.414;2022-12-29T06:02:29;4.20;;;2.05;;
35803;SDS011;21924;51.934;7.414;2022-12-29T06:05:13;3.42;;;1.60;;
35803;SDS011;21924;51.934;7.414;2022-12-29T06:07:57;2.55;;;2.00;;
35803;SDS011;21924;51.934;7.414;2022-12-29T06:10:42;3.50;;;1.95;;
35803;SDS011;21924;51.934;7.414;2022-12-29T06:13:26;6.70;;;2.20;;
35803;SDS011;21924;51.934;7.414;2022-12-29T06:16:11;4.07;;;1.95;;
35803;SDS011;21924;51.934;7.414;2022-12-29T06:18:55;4.32;;;2.20;;
35803;SDS011;21924;51.934;7.414;2022-12-29T06:21:40;4.25;;;1.92;;
35803;SDS011;21924;51.934;7.414;2022-12-29T06:24:24;8.35;;;1.90;;
35803;SDS011;21924;51.934;7.414;2022-12-29T06:27:08;2.38;;;2.17;;
35803;SDS011;21924;51.934;7.414;2022-12-29T06:29:52;3.25;;;2.13;;
35803;SDS011;21924;51.934;7.414;2022-12-29T06:32:37;4.95;;;2.10;;
35803;SDS011;21924;51.934;7.414;2022-12-29T06:35:21;3.53;;;2.80;;
35803;SDS011;21924;51.934;7.414;2022-12-29T06:38:08;2.53;;;2.28;;
35803;SDS011;21924;51.934;7.414;2022-12-29T06:40:52;3.05;;;2.40;;
35803;SDS011;21924;51.934;7.414;2022-12-29T06:43:37;3.80;;;2.17;;
35803;SDS011;21924;51.934;7.414;2022-12-29T06:46:21;3.50;;;2.08;;
35803;SDS011;21924;51.934;7.414;2022-12-29T06:49:06;5.78;;;2.22;;
35803;SDS011;21924;51.934;7.414;2022-12-29T06:51:50;5.80;;;2.25;;
35803;SDS011;21924;51.934;7.414;2022-12-29T06:54:34;4.50;;;2.10;;
35803;SDS011;21924;51.934;7.414;2022-12-29T06:57:19;8.88;;;2.67;;
35803;SDS011;21924;51.934;7.414;2022-12-29T07:00:03;6.10;;;2.42;;
35803;SDS011;21924;51.934;7.414;2022-12-29T07:02:48;7.68;;;3.10;;
35803;SDS011;21924;51.934;7.414;2022-12-29T07:05:33;5.45;;;2.42;;
35803;SDS011;21924;51.934;7.414;2022-12-29T07:08:17;4.20;;;2.30;;
35803;SDS011;21924;51.934;7.414;2022-12-29T07:11:01;9.05;;;2.67;;
35803;SDS011;21924;51.934;7.414;2022-12-29T07:13:45;5.45;;;2.80;;
35803;SDS011;21924;51.934;7.414;2022-12-29T07:16:29;8.20;;;2.72;;
35803;SDS011;21924;51.934;7.414;2022-12-29T07:19:15;6.28;;;2.72;;
35803;SDS011;21924;51.934;7.414;2022-12-29T07:21:59;11.63;;;2.75;;
35803;SDS011;21924;51.934;7.414;2022-12-29T07:24:43;4.25;;;2.53;;
35803;SDS011;21924;51.934;7.414;2022-12-29T07:27:27;7.82;;;2.63;;
35803;SDS011;21924;51.934;7.414;2022-12-29T07:30:12;7.57;;;2.40;;
35803;SDS011;21924;51.934;7.414;2022-12-29T07:32:56;3.08;;;2.47;;
35803;SDS011;21924;51.934;7.414;2022-12-29T07:35:40;7.93;;;2.50;;
35803;SDS011;21924;51.934;7.414;2022-12-29T07:38:24;5.00;;;2.10;;
35803;SDS011;21924;51.934;7.414;2022-12-29T07:41:08;2.30;;;2.10;;
35803;SDS011;21924;51.934;7.414;2022-12-29T07:43:53;7.22;;;4.40;;
35803;SDS011;21924;51.934;7.414;2022-12-29T07:46:37;10.52;;;2.70;;
35803;SDS011;21924;51.934;7.414;2022-12-29T07:49:21;6.30;;;2.63;;
35803;SDS011;21924;51.934;7.414;2022-12-29T07:52:06;6.32;;;2.50;;
35803;SDS011;21924;51.934;7.414;2022-12-29T07:54:50;3.53;;;2.20;;
35803;SDS011;21924;51.934;7.414;2022-12-29T07:57:34;3.38;;;2.50;;
35803;SDS011;21924;51.934;7.414;2022-12-29T08:00:19;10.43;;;3.00;;
35803;SDS011;21924;51.934;7.414;2022-12-29T08:03:04;7.45;;;2.20;;
35803;SDS011;21924;51.934;7.414;2022-12-29T08:05:48;3.17;;;2.88;;
35803;SDS011;21924;51.934;7.414;2022-12-29T08:08:33;5.20;;;2.45;;
35803;SDS011;21924;51.934;7.414;2022-12-29T08:11:17;7.78;;;3.20;;
35803;SDS011;21924;51.934;7.414;2022-12-29T08:14:01;5.40;;;2.35;;
35803;SDS011;21924;51.934;7.414;2022-12-29T08:16:46;5.72;;;2.45;;
35803;SDS011;21924;51.934;7.414;2022-12-29T08:19:30;3.70;;;2.40;;
35803;SDS011;21924;51.934;7.414;2022-12-29T08:22:14;4.18;;;2.58;;
35803;SDS011;21924;51.934;7.414;2022-12-29T08:24:59;19.45;;;3.78;;
35803;SDS011;21924;51.934;7.414;2022-12-29T08:27:43;7.47;;;2.35;;
35803;SDS011;21924;51.934;7.414;2022-12-29T08:30:27;2.22;;;1.98;;
35803;SDS011;21924;51.934;7.414;2022-12-29T08:33:12;5.00;;;3.17;;
35803;SDS011;21924;51.934;7.414;2022-12-29T08:35:59;7.40;;;2.35;;
35803;SDS011;21924;51.934;7.414;2022-12-29T08:38:48;7.55;;;2.78;;
35803;SDS011;21924;51.934;7.414;2022-12-29T08:41:32;2.50;;;2.30;;
35803;SDS011;21924;51.934;7.414;2022-12-29T08:44:16;10.20;;;2.58;;
35803;SDS011;21924;51.934;7.414;2022-12-29T08:47:00;3.90;;;2.85;;
35803;SDS011;21924;51.934;7.414;2022-12-29T08:49:45;8.02;;;2.47;;
35803;SDS011;21924;51.934;7.414;2022-12-29T08:52:29;8.05;;;2.35;;
35803;SDS011;21924;51.934;7.414;2022-12-29T08:55:13;5.05;;;2.60;;
35803;SDS011;21924;51.934;7.414;2022-12-29T08:57:57;5.85;;;2.42;;
35803;SDS011;21924;51.934;7.414;2022-12-29T09:00:42;8.35;;;2.00;;
35803;SDS011;21924;51.934;7.414;2022-12-29T09:03:26;10.90;;;2.65;;
35803;SDS011;21924;51.934;7.414;2022-12-29T09:06:11;5.55;;;2.45;;
35803;SDS011;21924;51.934;7.414;2022-12-29T09:08:56;6.07;;;3.08;;
35803;SDS011;21924;51.934;7.414;2022-12-29T09:11:41;4.40;;;2.13;;
35803;SDS011;21924;51.934;7.414;2022-12-29T09:14:26;11.00;;;2.80;;
35803;SDS011;21924;51.934;7.414;2022-12-29T09:17:11;4.25;;;2.58;;
35803;SDS011;21924;51.934;7.414;2022-12-29T09:20:15;4.93;;;2.40;;
35803;SDS011;21924;51.934;7.414;2022-12-29T09:23:01;4.15;;;2.72;;
35803;SDS011;21924;51.934;7.414;2022-12-29T09:25:47;7.07;;;2.25;;
35803;SDS011;21924;51.934;7.414;2022-12-29T09:28:31;4.72;;;2.00;;
35803;SDS011;21924;51.934;7.414;2022-12-29T09:31:15;8.98;;;3.33;;
35803;SDS011;21924;51.934;7.414;2022-12-29T09:33:59;7.53;;;2.63;;
35803;SDS011;21924;51.934;7.414;2022-12-29T09:36:43;7.18;;;2.42;;
35803;SDS011;21924;51.934;7.414;2022-12-29T09:39:28;5.93;;;2.33;;
35803;SDS011;21924;51.934;7.414;2022-12-29T09:45:32;9.90;;;2.63;;
35803;SDS011;21924;51.934;7.414;2022-12-29T09:48:31;6.50;;;2.70;;
35803;SDS011;21924;51.934;7.414;2022-12-29T09:51:20;5.70;;;2.03;;
35803;SDS011;21924;51.934;7.414;2022-12-29T09:54:20;2.55;;;2.00;;
35803;SDS011;21924;51.934;7.414;2022-12-29T10:00:46;3.55;;;1.95;;
35803;SDS011;21924;51.934;7.414;2022-12-29T10:03:45;4.63;;;2.00;;
35803;SDS011;21924;51.934;7.414;2022-12-29T10:09:44;8.77;;;2.30;;
35803;SDS011;21924;51.934;7.414;2022-12-29T10:15:29;9.23;;;2.30;;
35803;SDS011;21924;51.934;7.414;2022-12-29T10:18:23;8.45;;;3.35;;
35803;SDS011;21924;51.934;7.414;2022-12-29T10:24:44;11.40;;;2.47;;
35803;SDS011;21924;51.934;7.414;2022-12-29T10:27:32;5.95;;;2.53;;
35803;SDS011;21924;51.934;7.414;2022-12-29T10:30:17;13.38;;;2.70;;
35803;SDS011;21924;51.934;7.414;2022-12-29T10:33:03;7.55;;;2.15;;
35803;SDS011;21924;51.934;7.414;2022-12-29T10:35:49;6.65;;;2.30;;
35803;SDS011;21924;51.934;7.414;2022-12-29T10:38:35;4.65;;;1.90;;
35803;SDS011;21924;51.934;7.414;2022-12-29T10:41:36;4.80;;;2.40;;
35803;SDS011;21924;51.934;7.414;2022-12-29T10:44:33;5.95;;;2.58;;
35803;SDS011;21924;51.934;7.414;2022-12-29T10:47:19;3.95;;;2.10;;
35803;SDS011;21924;51.934;7.414;2022-12-29T10:50:06;8.70;;;3.03;;
35803;SDS011;21924;51.934;7.414;2022-12-29T10:52:51;5.05;;;2.15;;
35803;SDS011;21924;51.934;7.414;2022-12-29T10:55:37;9.18;;;2.28;;
35803;SDS011;21924;51.934;7.414;2022-12-29T10:58:24;5.82;;;2.10;;
35803;SDS011;21924;51.934;7.414;2022-12-29T11:01:11;11.55;;;2.42;;
35803;SDS011;21924;51.934;7.414;2022-12-29T11:04:02;9.63;;;2.60;;
35803;SDS011;21924;51.934;7.414;2022-12-29T11:06:58;6.13;;;2.05;;
35803;SDS011;21924;51.934;7.414;2022-12-29T11:09:44;7.43;;;2.20;;
35803;SDS011;21924;51.934;7.414;2022-12-29T11:12:30;6.20;;;2.80;;
35803;SDS011;21924;51.934;7.414;2022-12-29T11:15:15;13.15;;;2.38;;
35803;SDS011;21924;51.934;7.414;2022-12-29T11:18:00;4.93;;;1.98;;
35803;SDS011;21924;51.934;7.414;2022-12-29T11:20:44;6.47;;;2.05;;
35803;SDS011;21924;51.934;7.414;2022-12-29T11:26:25;11.32;;;2.30;;
35803;SDS011;21924;51.934;7.414;2022-12-29T11:32:00;2.25;;;1.73;;
35803;SDS011;21924;51.934;7.414;2022-12-29T11:34:56;4.63;;;1.90;;
35803;SDS011;21924;51.934;7.414;2022-12-29T11:37:42;6.78;;;2.50;;
35803;SDS011;21924;51.934;7.414;2022-12-29T11:40:26;4.95;;;1.92;;
35803;SDS011;21924;51.934;7.414;2022-12-29T11:43:18;10.20;;;2.55;;
35803;SDS011;21924;51.934;7.414;2022-12-29T11:46:14;4.90;;;2.63;;
35803;SDS011;21924;51.934;7.414;2022-12-29T11:49:01;8.75;;;2.85;;
35803;SDS011;21924;51.934;7.414;2022-12-29T11:51:48;4.72;;;1.98;;
35803;SDS011;21924;51.934;7.414;2022-12-29T11:54:34;4.75;;;1.63;;
35803;SDS011;21924;51.934;7.414;2022-12-29T11:57:20;6.13;;;2.00;;
35803;SDS011;21924;51.934;7.414;2022-12-29T12:00:14;7.95;;;1.80;;
35803;SDS011;21924;51.934;7.414;2022-12-29T12:03:03;4.97;;;1.77;;
35803;SDS011;21924;51.934;7.414;2022-12-29T12:08:51;6.22;;;1.80;;
35803;SDS011;21924;51.934;7.414;2022-12-29T12:11:39;7.43;;;1.95;;
35803;SDS011;21924;51.934;7.414;2022-12-29T12:14:28;4.95;;;1.75;;
35803;SDS011;21924;51.934;7.414;2022-12-29T12:17:37;8.27;;;2.10;;
35803;SDS011;21924;51.934;7.414;2022-12-29T12:20:41;5.40;;;1.90;;
35803;SDS011;21924;51.934;7.414;2022-12-29T12:26:36;8.85;;;1.85;;
35803;SDS011;21924;51.934;7.414;2022-12-29T12:29:26;9.90;;;2.40;;
35803;SDS011;21924;51.934;7.414;2022-12-29T12:32:27;6.50;;;2.50;;
35803;SDS011;21924;51.934;7.414;2022-12-29T12:41:48;5.03;;;1.70;;
35803;SDS011;21924;51.934;7.414;2022-12-29T12:44:45;11.20;;;2.00;;
35803;SDS011;21924;51.934;7.414;2022-12-29T12:47:53;9.05;;;2.15;;
35803;SDS011;21924;51.934;7.414;2022-12-29T12:50:59;4.68;;;1.73;;
35803;SDS011;21924;51.934;7.414;2022-12-29T12:54:17;7.18;;;2.03;;
35803;SDS011;21924;51.934;7.414;2022-12-29T12:57:17;4.05;;;1.80;;
35803;SDS011;21924;51.934;7.414;2022-12-29T13:00:18;9.93;;;2.53;;
35803;SDS011;21924;51.934;7.414;2022-12-29T13:03:13;7.15;;;2.13;;
35803;SDS011;21924;51.934;7.414;2022-12-29T13:06:15;5.18;;;2.10;;
35803;SDS011;21924;51.934;7.414;2022-12-29T13:12:18;10.90;;;2.10;;
35803;SDS011;21924;51.934;7.414;2022-12-29T13:25:02;8.52;;;2.47;;
35803;SDS011;21924;51.934;7.414;2022-12-29T13:34:00;7.70;;;2.65;;
35803;SDS011;21924;51.934;7.414;2022-12-29T13:36:54;11.00;;;2.00;;
35803;SDS011;21924;51.934;7.414;2022-12-29T13:39:52;6.30;;;2.28;;
35803;SDS011;21924;51.934;7.414;2022-12-29T13:42:42;8.88;;;2.40;;
35803;SDS011;21924;51.934;7.414;2022-12-29T13:45:28;3.47;;;2.05;;
35803;SDS011;21924;51.934;7.414;2022-12-29T13:48:22;5.93;;;2.25;;
35803;SDS011;21924;51.934;7.414;2022-12-29T13:51:13;11.82;;;2.80;;
35803;SDS011;21924;51.934;7.414;2022-12-29T13:54:13;10.05;;;2.50;;
35803;SDS011;21924;51.934;7.414;2022-12-29T14:00:06;13.40;;;3.28;;
35803;SDS011;21924;51.934;7.414;2022-12-29T14:03:20;7.63;;;3.30;;
35803;SDS011;21924;51.934;7.414;2022-12-29T14:06:21;9.52;;;2.50;;
35803;SDS011;21924;51.934;7.414;2022-12-29T14:09:34;8.80;;;2.20;;
35803;SDS011;21924;51.934;7.414;2022-12-29T14:15:21;10.50;;;2.20;;
35803;SDS011;21924;51.934;7.414;2022-12-29T14:18:14;11.43;;;2.70;;
35803;SDS011;21924;51.934;7.414;2022-12-29T14:21:05;12.52;;;2.67;;
35803;SDS011;21924;51.934;7.414;2022-12-29T14:29:54;13.32;;;3.08;;
35803;SDS011;21924;51.934;7.414;2022-12-29T14:32:39;11.85;;;3.60;;
35803;SDS011;21924;51.934;7.414;2022-12-29T14:35:40;12.85;;;2.55;;
35803;SDS011;21924;51.934;7.414;2022-12-29T14:38:26;11.43;;;2.65;;
35803;SDS011;21924;51.934;7.414;2022-12-29T14:47:03;6.35;;;2.75;;
35803;SDS011;21924;51.934;7.414;2022-12-29T14:49:50;8.93;;;2.75;;
35803;SDS011;21924;51.934;7.414;2022-12-29T14:55:39;7.47;;;2.10;;
35803;SDS011;21924;51.934;7.414;2022-12-29T14:58:38;13.55;;;2.30;;
35803;SDS011;21924;51.934;7.414;2022-12-29T15:04:23;6.05;;;2.00;;
35803;SDS011;21924;51.934;7.414;2022-12-29T15:07:13;10.30;;;2.20;;
35803;SDS011;21924;51.934;7.414;2022-12-29T15:10:05;5.22;;;2.22;;
35803;SDS011;21924;51.934;7.414;2022-12-29T15:13:00;4.43;;;1.95;;
35803;SDS011;21924;51.934;7.414;2022-12-29T15:15:48;4.03;;;2.10;;
35803;SDS011;21924;51.934;7.414;2022-12-29T15:18:32;6.72;;;2.60;;
35803;SDS011;21924;51.934;7.414;2022-12-29T15:21:17;11.57;;;3.60;;
35803;SDS011;21924;51.934;7.414;2022-12-29T15:24:11;4.75;;;2.10;;
35803;SDS011;21924;51.934;7.414;2022-12-29T15:26:56;10.57;;;2.58;;
35803;SDS011;21924;51.934;7.414;2022-12-29T15:29:41;6.20;;;2.33;;
35803;SDS011;21924;51.934;7.414;2022-12-29T15:32:28;21.58;;;3.30;;
35803;SDS011;21924;51.934;7.414;2022-12-29T15:38:21;6.55;;;2.50;;
35803;SDS011;21924;51.934;7.414;2022-12-29T15:41:21;6.75;;;3.15;;
35803;SDS011;21924;51.934;7.414;2022-12-29T15:44:43;6.55;;;2.22;;
35803;SDS011;21924;51.934;7.414;2022-12-29T15:47:28;5.13;;;2.33;;
35803;SDS011;21924;51.934;7.414;2022-12-29T15:53:02;6.65;;;2.10;;
35803;SDS011;21924;51.934;7.414;2022-12-29T15:56:05;5.30;;;2.20;;
35803;SDS011;21924;51.934;7.414;2022-12-29T15:58:53;6.28;;;2.60;;
35803;SDS011;21924;51.934;7.414;2022-12-29T16:01:37;4.32;;;2.45;;
35803;SDS011;21924;51.934;7.414;2022-12-29T16:04:21;2.97;;;1.80;;
35803;SDS011;21924;51.934;7.414;2022-12-29T16:07:23;8.83;;;2.23;;
35803;SDS011;21924;51.934;7.414;2022-12-29T16:13:27;3.33;;;2.38;;
35803;SDS011;21924;51.934;7.414;2022-12-29T16:16:15;5.13;;;2.13;;
35803;SDS011;21924;51.934;7.414;2022-12-29T16:19:03;3.03;;;2.00;;
35803;SDS011;21924;51.934;7.414;2022-12-29T16:21:56;9.32;;;2.47;;
35803;SDS011;21924;51.934;7.414;2022-12-29T16:24:42;8.20;;;2.35;;
35803;SDS011;21924;51.934;7.414;2022-12-29T16:27:35;3.75;;;2.55;;
35803;SDS011;21924;51.934;7.414;2022-12-29T16:30:26;5.78;;;2.22;;
35803;SDS011;21924;51.934;7.414;2022-12-29T16:33:37;2.70;;;2.50;;
35803;SDS011;21924;51.934;7.414;2022-12-29T16:36:32;4.82;;;2.60;;
35803;SDS011;21924;51.934;7.414;2022-12-29T16:50:49;2.70;;;2.50;;
35803;SDS011;21924;51.934;7.414;2022-12-29T16:53:37;8.80;;;2.45;;
35803;SDS011;21924;51.934;7.414;2022-12-29T16:56:24;4.75;;;2.47;;
35803;SDS011;21924;51.934;7.414;2022-12-29T16:59:25;5.97;;;2.40;;
35803;SDS011;21924;51.934;7.414;2022-12-29T17:02:22;7.43;;;2.38;;
35803;SDS011;21924;51.934;7.414;2022-12-29T17:05:12;5.78;;;2.65;;
35803;SDS011;21924;51.934;7.414;2022-12-29T17:07:57;12.13;;;2.72;;
35803;SDS011;21924;51.934;7.414;2022-12-29T17:10:45;7.97;;;2.65;;
35803;SDS011;21924;51.934;7.414;2022-12-29T17:13:49;8.18;;;2.20;;
35803;SDS011;21924;51.934;7.414;2022-12-29T17:16:33;7.70;;;2.45;;
35803;SDS011;21924;51.934;7.414;2022-12-29T17:19:18;7.45;;;3.47;;
35803;SDS011;21924;51.934;7.414;2022-12-29T17:22:15;12.20;;;2.75;;
35803;SDS011;21924;51.934;7.414;2022-12-29T17:25:12;6.90;;;2.97;;
35803;SDS011;21924;51.934;7.414;2022-12-29T17:30:47;4.07;;;2.53;;
35803;SDS011;21924;51.934;7.414;2022-12-29T17:33:35;4.22;;;2.40;;
35803;SDS011;21924;51.934;7.414;2022-12-29T17:36:22;7.57;;;2.47;;
35803;SDS011;21924;51.934;7.414;2022-12-29T17:39:07;7.88;;;2.67;;
35803;SDS011;21924;51.934;7.414;2022-12-29T17:41:51;8.07;;;2.78;;
35803;SDS011;21924;51.934;7.414;2022-12-29T17:44:36;8.63;;;2.30;;
35803;SDS011;21924;51.934;7.414;2022-12-29T17:47:20;5.85;;;2.47;;
35803;SDS011;21924;51.934;7.414;2022-12-29T17:50:04;16.83;;;2.67;;
35803;SDS011;21924;51.934;7.414;2022-12-29T17:52:54;5.25;;;2.08;;
35803;SDS011;21924;51.934;7.414;2022-12-29T17:55:40;7.00;;;2.90;;
35803;SDS011;21924;51.934;7.414;2022-12-29T17:58:26;7.47;;;2.40;;
35803;SDS011;21924;51.934;7.414;2022-12-29T18:03:55;3.25;;;2.55;;
35803;SDS011;21924;51.934;7.414;2022-12-29T18:06:40;8.00;;;2.58;;
35803;SDS011;21924;51.934;7.414;2022-12-29T18:09:25;6.53;;;2.47;;
35803;SDS011;21924;51.934;7.414;2022-12-29T18:12:19;8.90;;;3.78;;
35803;SDS011;21924;51.934;7.414;2022-12-29T18:18:10;2.83;;;2.60;;
35803;SDS011;21924;51.934;7.414;2022-12-29T18:20:59;2.47;;;2.25;;
35803;SDS011;21924;51.934;7.414;2022-12-29T18:23:43;8.23;;;3.00;;
35803;SDS011;21924;51.934;7.414;2022-12-29T18:26:28;5.82;;;2.28;;
35803;SDS011;21924;51.934;7.414;2022-12-29T18:29:18;2.75;;;2.55;;
35803;SDS011;21924;51.934;7.414;2022-12-29T18:32:02;5.20;;;2.75;;
35803;SDS011;21924;51.934;7.414;2022-12-29T18:34:47;7.20;;;2.45;;
35803;SDS011;21924;51.934;7.414;2022-12-29T18:37:31;5.88;;;2.25;;
35803;SDS011;21924;51.934;7.414;2022-12-29T18:40:16;6.28;;;2.50;;
35803;SDS011;21924;51.934;7.414;2022-12-29T18:43:02;6.43;;;2.35;;
35803;SDS011;21924;51.934;7.414;2022-12-29T18:45:46;4.10;;;2.10;;
35803;SDS011;21924;51.934;7.414;2022-12-29T18:48:30;4.70;;;2.50;;
35803;SDS011;21924;51.934;7.414;2022-12-29T18:51:15;4.30;;;2.40;;
35803;SDS011;21924;51.934;7.414;2022-12-29T18:54:01;5.22;;;2.33;;
35803;SDS011;21924;51.934;7.414;2022-12-29T18:56:46;8.23;;;2.35;;
35803;SDS011;21924;51.934;7.414;2022-12-29T18:59:30;4.43;;;2.60;;
35803;SDS011;21924;51.934;7.414;2022-12-29T19:02:15;3.88;;;2.60;;
35803;SDS011;21924;51.934;7.414;2022-12-29T19:05:00;13.43;;;3.42;;
35803;SDS011;21924;51.934;7.414;2022-12-29T19:07:44;5.20;;;2.33;;
35803;SDS011;21924;51.934;7.414;2022-12-29T19:10:29;6.65;;;2.65;;
35803;SDS011;21924;51.934;7.414;2022-12-29T19:13:14;16.23;;;2.90;;
35803;SDS011;21924;51.934;7.414;2022-12-29T19:16:00;9.57;;;5.75;;
35803;SDS011;21924;51.934;7.414;2022-12-29T19:18:45;11.02;;;3.50;;
35803;SDS011;21924;51.934;7.414;2022-12-29T19:21:30;9.98;;;2.88;;